YMM weather

Fort McMurray Airport
Fort McMurray, Alberta, Canada

Public forecast

Using degrees Celsius for public forecast. Weather courtesy of forecast.io.

Current aviation weather report (METAR) for Fort McMurray Airport

Retrieved 2019/10/16 06:38 UTC (17 minutes ago):

CYMM 160638Z AUTO 12012G17KT 1 1/4SM -SN SCT008 OVC013 00/M00 A2977 RMK ICG SLP101

Aviation forecast (TAF) for Fort McMurray Airport

Retrieved 2019/10/16 07:42 UTC (0 seconds ago):

TAF TAF CYMM 160638Z 1607/1619 12012G22KT 1SM -SN BKN008 OVC015 TEMPO 1607/1611 4SM -RASN SCT008 OVC015 FM161100 13008KT P6SM SCT008 OVC025 TEMPO 1611/1614 4SM -RASN BR OVC008 FM161400 13008KT P6SM SCT012 OVC030 TEMPO 1614/1619 BKN012 OVC030 RMK FCST BASED ON AUTO OBS NXT FCST BY 161300Z